createdAt,value
2022-11-15T00:00:57.149Z,38.15
2022-11-15T00:03:26.646Z,39.88
2022-11-15T00:05:53.301Z,39.40
2022-11-15T00:08:20.135Z,41.28
2022-11-15T00:10:57.020Z,39.90
2022-11-15T00:13:23.762Z,38.05
2022-11-15T00:15:50.358Z,37.78
2022-11-15T00:18:17.570Z,35.25
2022-11-15T00:20:44.692Z,36.50
2022-11-15T00:23:11.637Z,37.55
2022-11-15T00:25:40.197Z,37.28
2022-11-15T00:28:06.710Z,37.35
2022-11-15T00:30:33.250Z,37.83
2022-11-15T00:33:06.747Z,39.17
2022-11-15T00:35:34.583Z,38.50
2022-11-15T00:38:02.040Z,40.78
2022-11-15T00:40:28.865Z,39.70
2022-11-15T00:42:55.417Z,41.78
2022-11-15T00:45:22.089Z,41.92
2022-11-15T00:47:48.620Z,39.45
2022-11-15T00:50:15.625Z,39.75
2022-11-15T00:52:42.575Z,39.10
2022-11-15T00:55:15.052Z,39.90
2022-11-15T00:57:41.934Z,40.17
2022-11-15T01:00:09.581Z,40.55
2022-11-15T01:02:36.214Z,39.65
2022-11-15T01:05:03.194Z,39.65
2022-11-15T01:07:29.799Z,40.67
2022-11-15T01:09:56.397Z,39.85
2022-11-15T01:12:22.900Z,40.35
2022-11-15T01:14:50.526Z,40.80
2022-11-15T01:17:17.185Z,40.17
2022-11-15T01:19:43.678Z,39.65
2022-11-15T01:22:10.195Z,38.67
2022-11-15T01:24:36.795Z,38.85
2022-11-15T01:27:03.307Z,39.85
2022-11-15T01:29:29.775Z,39.42
2022-11-15T01:31:56.378Z,41.35
2022-11-15T01:34:22.876Z,40.28
2022-11-15T01:36:49.425Z,38.05
2022-11-15T01:39:16.400Z,39.03
2022-11-15T01:41:42.941Z,37.95
2022-11-15T01:44:37.280Z,39.80
2022-11-15T01:47:08.684Z,36.45
2022-11-15T01:49:38.941Z,37.13
2022-11-15T01:52:09.909Z,35.88
2022-11-15T01:54:36.798Z,37.58
2022-11-15T01:57:08.981Z,37.70
2022-11-15T01:59:37.932Z,38.63
2022-11-15T02:02:04.507Z,37.28
2022-11-15T02:04:38.592Z,39.42
2022-11-15T02:07:07.766Z,37.38
2022-11-15T02:09:34.437Z,37.83
2022-11-15T02:12:01.365Z,37.63
2022-11-15T02:14:29.971Z,36.95
2022-11-15T02:17:31.305Z,36.17
2022-11-15T02:20:07.009Z,36.67
2022-11-15T02:22:42.532Z,35.63
2022-11-15T02:25:38.788Z,36.22
2022-11-15T02:28:43.761Z,36.25
2022-11-15T02:31:37.473Z,36.57
2022-11-15T02:34:17.679Z,34.63
2022-11-15T02:37:09.970Z,36.70
2022-11-15T02:39:58.948Z,35.63
2022-11-15T02:42:48.497Z,35.90
2022-11-15T02:45:23.649Z,37.63
2022-11-15T02:47:53.449Z,36.53
2022-11-15T02:50:25.520Z,36.47
2022-11-15T02:52:52.726Z,36.35
2022-11-15T02:55:57.524Z,36.58
2022-11-15T02:58:49.629Z,37.40
2022-11-15T03:01:39.034Z,36.47
2022-11-15T03:04:37.012Z,34.85
2022-11-15T03:07:24.633Z,34.40
2022-11-15T03:10:27.523Z,35.92
2022-11-15T03:13:02.113Z,34.53
2022-11-15T03:15:32.416Z,33.60
2022-11-15T03:18:05.680Z,35.38
2022-11-15T03:20:33.532Z,35.25
2022-11-15T03:23:07.884Z,36.55
2022-11-15T03:25:37.830Z,36.42
2022-11-15T03:28:06.762Z,35.33
2022-11-15T03:30:35.567Z,34.85
2022-11-15T03:33:05.177Z,38.78
2022-11-15T03:35:38.014Z,36.47
2022-11-15T03:38:27.063Z,35.58
2022-11-15T03:41:01.572Z,36.17
2022-11-15T03:43:39.861Z,34.70
2022-11-15T03:46:15.636Z,35.78
2022-11-15T03:48:47.925Z,35.97
2022-11-15T03:51:14.858Z,35.28
2022-11-15T03:53:42.001Z,38.65
2022-11-15T03:56:08.584Z,37.63
2022-11-15T03:58:35.209Z,35.80
2022-11-15T04:01:01.865Z,37.80
2022-11-15T04:03:28.609Z,36.28
2022-11-15T04:05:55.283Z,35.70
2022-11-15T04:08:21.794Z,36.70
2022-11-15T04:10:50.455Z,35.03
2022-11-15T04:13:16.922Z,35.63
2022-11-15T04:15:43.449Z,35.38
2022-11-15T04:18:09.958Z,36.72
2022-11-15T04:20:54.797Z,34.38
2022-11-15T04:23:42.116Z,34.60
2022-11-15T04:26:13.658Z,33.58
2022-11-15T04:28:58.506Z,35.03
2022-11-15T04:31:25.209Z,33.92
2022-11-15T04:33:51.757Z,35.70
2022-11-15T04:36:37.122Z,36.33
2022-11-15T04:39:03.954Z,34.88
2022-11-15T04:41:30.635Z,35.25
2022-11-15T04:43:57.322Z,35.55
2022-11-15T04:46:24.793Z,34.05
2022-11-15T04:48:58.034Z,33.95
2022-11-15T04:51:25.340Z,34.33
2022-11-15T04:53:51.812Z,34.25
2022-11-15T04:56:18.311Z,36.25
2022-11-15T04:58:44.853Z,36.08
2022-11-15T05:01:15.011Z,35.05
2022-11-15T05:04:01.404Z,36.25
2022-11-15T05:06:28.224Z,37.05
2022-11-15T05:08:55.581Z,37.67
2022-11-15T05:11:22.676Z,38.55
2022-11-15T05:13:49.670Z,37.97
2022-11-15T05:16:16.153Z,36.45
2022-11-15T05:18:42.640Z,36.75
2022-11-15T05:21:11.722Z,36.65
2022-11-15T05:23:38.644Z,39.30
2022-11-15T05:26:09.389Z,37.95
2022-11-15T05:28:37.537Z,37.95
2022-11-15T05:31:17.294Z,37.55
2022-11-15T05:33:45.385Z,36.97
2022-11-15T05:36:18.068Z,38.08
2022-11-15T05:38:46.502Z,39.33
2022-11-15T05:41:14.470Z,39.97
2022-11-15T05:43:42.594Z,39.60
2022-11-15T05:46:09.386Z,40.30
2022-11-15T05:48:38.712Z,40.40
2022-11-15T05:51:07.655Z,40.58
2022-11-15T05:53:34.556Z,38.60
2022-11-15T05:56:01.677Z,39.10
2022-11-15T05:58:28.174Z,39.38
2022-11-15T06:00:55.798Z,38.15
2022-11-15T06:03:22.290Z,42.40
2022-11-15T06:05:48.779Z,43.25
2022-11-15T06:08:15.290Z,43.67
2022-11-15T06:10:41.806Z,43.85
2022-11-15T06:13:08.314Z,47.83
2022-11-15T06:15:35.354Z,48.38
2022-11-15T06:18:02.310Z,49.08
2022-11-15T06:20:30.480Z,52.05
2022-11-15T06:23:00.851Z,50.28
2022-11-15T06:25:29.177Z,52.65
2022-11-15T06:27:56.812Z,52.95
2022-11-15T06:30:24.336Z,55.30
2022-11-15T06:32:53.284Z,51.28
2022-11-15T06:35:19.813Z,53.08
2022-11-15T06:37:46.293Z,54.38
2022-11-15T06:40:12.962Z,53.65
2022-11-15T06:42:39.461Z,53.72
2022-11-15T06:45:06.421Z,54.67
2022-11-15T06:47:32.906Z,54.47
2022-11-15T06:49:59.478Z,54.65
2022-11-15T06:52:26.040Z,55.38
2022-11-15T06:54:52.558Z,56.95
2022-11-15T06:57:19.060Z,59.25
2022-11-15T06:59:45.613Z,57.65
2022-11-15T07:02:15.179Z,59.30
2022-11-15T07:04:41.722Z,56.42
2022-11-15T07:07:08.297Z,59.97
2022-11-15T07:09:34.847Z,65.78
2022-11-15T07:12:07.285Z,68.70
2022-11-15T07:14:34.320Z,70.05
2022-11-15T07:17:00.829Z,73.53
2022-11-15T07:19:27.378Z,74.15
2022-11-15T07:21:53.848Z,72.85
2022-11-15T07:24:20.333Z,72.10
2022-11-15T07:26:46.831Z,72.90
2022-11-15T07:29:13.527Z,74.30
2022-11-15T07:31:40.169Z,76.47
2022-11-15T07:34:06.670Z,77.00
2022-11-15T07:36:35.213Z,76.68
2022-11-15T07:39:01.846Z,75.78
2022-11-15T07:41:28.382Z,80.35
2022-11-15T07:43:54.846Z,84.07
2022-11-15T07:46:21.334Z,92.50
2022-11-15T07:48:47.861Z,94.60
2022-11-15T07:51:18.140Z,91.82
2022-11-15T07:53:44.936Z,92.03
2022-11-15T07:56:12.002Z,89.47
2022-11-15T07:58:38.495Z,97.13
2022-11-15T08:01:06.864Z,101.95
2022-11-15T08:03:34.749Z,108.70
2022-11-15T08:06:01.589Z,111.70
2022-11-15T08:08:28.363Z,116.10
2022-11-15T08:10:54.925Z,116.68
2022-11-15T08:13:22.293Z,117.30
2022-11-15T08:15:52.238Z,114.65
2022-11-15T08:18:23.001Z,115.78
2022-11-15T08:20:49.499Z,113.78
2022-11-15T08:23:15.998Z,118.15
2022-11-15T08:25:42.594Z,120.80
2022-11-15T08:28:11.578Z,125.78
2022-11-15T08:30:42.500Z,129.30
2022-11-15T08:33:13.610Z,118.22
2022-11-15T08:35:41.957Z,125.75
2022-11-15T08:38:09.908Z,129.15
2022-11-15T08:40:36.674Z,125.90
2022-11-15T08:43:03.943Z,132.00
2022-11-15T08:45:32.059Z,134.38
2022-11-15T08:47:58.859Z,132.68
2022-11-15T08:50:25.392Z,125.78
2022-11-15T08:52:51.937Z,136.00
2022-11-15T08:55:18.625Z,136.10
2022-11-15T08:57:45.446Z,145.50
2022-11-15T09:00:13.366Z,157.55
2022-11-15T09:02:40.998Z,167.05
2022-11-15T09:05:08.213Z,163.23
2022-11-15T09:07:34.857Z,168.88
2022-11-15T09:10:01.562Z,176.52
2022-11-15T09:12:28.505Z,179.23
2022-11-15T09:14:55.687Z,177.40
2022-11-15T09:17:25.023Z,179.25
2022-11-15T09:19:51.925Z,177.13
2022-11-15T09:22:19.062Z,187.73
2022-11-15T09:24:45.625Z,192.45
2022-11-15T09:27:12.721Z,195.30
2022-11-15T09:29:39.285Z,201.32
2022-11-15T09:32:05.858Z,206.80
2022-11-15T09:34:32.385Z,219.25
2022-11-15T09:36:58.891Z,222.15
2022-11-15T09:39:25.388Z,232.50
2022-11-15T09:42:02.454Z,237.90
2022-11-15T09:44:44.410Z,241.18
2022-11-15T09:47:48.894Z,233.18
2022-11-15T09:50:33.441Z,230.50
2022-11-15T09:52:59.975Z,234.82
2022-11-15T09:55:41.922Z,246.48
2022-11-15T09:58:30.585Z,236.77
2022-11-15T10:01:01.018Z,234.60
2022-11-15T10:03:34.419Z,237.70
2022-11-15T10:06:04.653Z,215.85
2022-11-15T10:08:55.793Z,219.30
2022-11-15T10:11:42.246Z,216.98
2022-11-15T10:14:19.671Z,215.60
2022-11-15T10:17:10.333Z,220.73
2022-11-15T10:19:53.414Z,214.80
2022-11-15T10:22:28.071Z,215.07
2022-11-15T10:27:46.992Z,193.30
2022-11-15T10:30:17.047Z,210.85
2022-11-15T10:32:45.865Z,212.98
2022-11-15T10:35:21.205Z,219.55
2022-11-15T10:37:48.342Z,217.13
2022-11-15T10:40:22.844Z,220.65
2022-11-15T10:43:06.643Z,211.30
2022-11-15T10:45:35.030Z,216.05
2022-11-15T10:48:13.774Z,219.45
2022-11-15T10:50:48.105Z,210.23
2022-11-15T10:53:33.228Z,204.50
2022-11-15T10:56:09.820Z,196.38
2022-11-15T10:58:42.281Z,201.52
2022-11-15T11:01:16.045Z,200.82
2022-11-15T11:03:44.460Z,202.97
2022-11-15T11:06:14.653Z,203.27
2022-11-15T11:08:53.820Z,207.95
2022-11-15T11:11:20.384Z,204.38
2022-11-15T11:13:46.885Z,210.00
2022-11-15T11:16:16.108Z,205.93
2022-11-15T11:18:45.440Z,207.88
2022-11-15T11:21:15.817Z,205.32
2022-11-15T11:23:58.356Z,200.98
2022-11-15T11:26:43.410Z,196.18
2022-11-15T11:32:02.033Z,157.80
2022-11-15T11:35:13.152Z,170.60
2022-11-15T11:38:01.406Z,169.15
2022-11-15T11:40:55.469Z,173.70
2022-11-15T11:43:41.277Z,173.32
2022-11-15T11:46:29.296Z,172.20
2022-11-15T11:49:10.728Z,174.00
2022-11-15T11:52:05.633Z,178.43
2022-11-15T11:54:53.753Z,178.05
2022-11-15T11:57:48.249Z,169.10
2022-11-15T12:00:28.515Z,176.37
2022-11-15T12:03:13.588Z,173.18
2022-11-15T12:05:47.726Z,178.43
2022-11-15T12:08:31.372Z,178.45
2022-11-15T12:11:30.593Z,182.02
2022-11-15T12:14:04.626Z,183.45
2022-11-15T12:16:33.294Z,189.82
2022-11-15T12:19:04.515Z,195.82
2022-11-15T12:21:58.433Z,206.00
2022-11-15T12:24:30.894Z,193.80
2022-11-15T12:27:11.324Z,205.45
2022-11-15T12:29:44.413Z,213.65
2022-11-15T12:32:30.764Z,209.90
2022-11-15T12:34:58.789Z,205.35
2022-11-15T12:37:38.747Z,211.13
2022-11-15T12:40:08.325Z,200.82
2022-11-15T12:43:00.603Z,203.20
2022-11-15T12:45:36.250Z,196.48
2022-11-15T12:48:20.042Z,197.95
2022-11-15T12:50:55.229Z,195.13
2022-11-15T12:53:28.656Z,200.82
2022-11-15T12:56:22.618Z,200.23
2022-11-15T12:58:59.396Z,198.05
2022-11-15T13:01:46.116Z,205.93
2022-11-15T13:04:27.857Z,200.63
2022-11-15T13:06:54.322Z,203.63
2022-11-15T13:09:32.852Z,210.52
2022-11-15T13:12:04.946Z,200.00
2022-11-15T13:14:51.434Z,208.77
2022-11-15T13:17:41.214Z,206.48
2022-11-15T13:20:07.716Z,198.70
2022-11-15T13:22:53.410Z,200.43
2022-11-15T13:25:28.713Z,216.70
2022-11-15T13:27:59.589Z,217.82
2022-11-15T13:30:31.493Z,220.15
2022-11-15T13:33:08.932Z,234.20
2022-11-15T13:35:41.938Z,227.40
2022-11-15T13:38:38.806Z,221.18
2022-11-15T13:41:21.242Z,213.80
2022-11-15T13:43:49.912Z,220.40
2022-11-15T13:46:28.212Z,227.23
2022-11-15T13:49:01.261Z,225.85
2022-11-15T13:51:36.358Z,224.48
2022-11-15T13:54:19.005Z,218.60
2022-11-15T13:57:06.462Z,214.00
2022-11-15T13:59:37.029Z,204.70
2022-11-15T14:02:16.657Z,208.30
2022-11-15T14:04:51.520Z,208.98
2022-11-15T14:07:21.353Z,208.90
2022-11-15T14:09:48.737Z,213.70
2022-11-15T14:12:23.280Z,212.57
2022-11-15T14:14:49.858Z,213.05
2022-11-15T14:17:49.600Z,212.57
2022-11-15T14:20:39.026Z,196.73
2022-11-15T14:23:27.003Z,199.88
2022-11-15T14:25:58.374Z,196.82
2022-11-15T14:28:24.801Z,199.50
2022-11-15T14:30:53.755Z,207.10
2022-11-15T14:33:30.994Z,202.05
2022-11-15T14:35:59.301Z,203.82
2022-11-15T14:38:26.704Z,204.00
2022-11-15T14:40:54.853Z,203.18
2022-11-15T14:43:21.433Z,206.00
2022-11-15T14:45:48.017Z,202.85
2022-11-15T14:48:14.752Z,200.65
2022-11-15T14:50:41.509Z,201.15
2022-11-15T14:53:12.402Z,203.20
2022-11-15T14:55:39.033Z,200.45
2022-11-15T14:58:08.901Z,202.25
2022-11-15T15:00:39.736Z,197.75
2022-11-15T15:03:07.147Z,204.43
2022-11-15T15:05:39.494Z,203.05
2022-11-15T15:08:07.193Z,195.40
2022-11-15T15:10:41.620Z,194.43
2022-11-15T15:13:21.240Z,198.88
2022-11-15T15:15:49.205Z,196.93
2022-11-15T15:18:16.522Z,189.60
2022-11-15T15:20:44.490Z,200.02
2022-11-15T15:23:21.333Z,200.50
2022-11-15T15:25:50.011Z,197.80
2022-11-15T15:28:16.734Z,200.90
2022-11-15T15:30:43.302Z,200.55
2022-11-15T15:33:09.815Z,200.23
2022-11-15T15:35:36.473Z,203.05
2022-11-15T15:38:04.344Z,198.63
2022-11-15T15:40:33.606Z,202.77
2022-11-15T15:43:00.771Z,203.80
2022-11-15T15:45:28.677Z,201.13
2022-11-15T15:47:55.235Z,202.13
2022-11-15T15:50:24.715Z,200.07
2022-11-15T15:52:53.033Z,200.50
2022-11-15T15:55:20.112Z,203.02
2022-11-15T15:57:47.304Z,200.15
2022-11-15T16:00:14.617Z,198.32
2022-11-15T16:02:41.961Z,202.63
2022-11-15T16:05:09.304Z,205.02
2022-11-15T16:07:35.842Z,206.00
2022-11-15T16:10:03.706Z,204.02
2022-11-15T16:12:36.469Z,198.45
2022-11-15T16:15:04.089Z,198.32
2022-11-15T16:17:39.595Z,204.18
2022-11-15T16:20:07.310Z,199.98
2022-11-15T16:22:33.797Z,198.38
2022-11-15T16:25:00.298Z,199.10
2022-11-15T16:27:26.838Z,202.60
2022-11-15T16:29:53.358Z,200.50
2022-11-15T16:32:20.088Z,200.75
2022-11-15T16:34:49.218Z,204.70
2022-11-15T16:37:25.583Z,206.95
2022-11-15T16:39:53.992Z,205.35
2022-11-15T16:42:23.700Z,205.73
2022-11-15T16:44:50.197Z,212.93
2022-11-15T16:47:22.981Z,211.05
2022-11-15T16:49:49.524Z,211.68
2022-11-15T16:52:21.033Z,206.57
2022-11-15T16:54:48.118Z,202.52
2022-11-15T16:57:14.627Z,206.27
2022-11-15T16:59:41.106Z,206.23
2022-11-15T17:02:13.980Z,205.35
2022-11-15T17:04:40.659Z,203.30
2022-11-15T17:07:07.302Z,206.10
2022-11-15T17:09:34.421Z,205.60
2022-11-15T17:12:00.928Z,211.00
2022-11-15T17:14:27.505Z,212.63
2022-11-15T17:16:55.390Z,215.63
2022-11-15T17:19:21.919Z,217.90
2022-11-15T17:21:52.435Z,207.13
2022-11-15T17:24:21.128Z,209.07
2022-11-15T17:26:48.021Z,208.75
2022-11-15T17:29:14.515Z,209.15
2022-11-15T17:31:41.024Z,201.98
2022-11-15T17:34:07.702Z,198.45
2022-11-15T17:36:35.180Z,195.68
2022-11-15T17:39:04.084Z,198.32
2022-11-15T17:41:30.855Z,195.13
2022-11-15T17:43:59.754Z,196.73
2022-11-15T17:46:27.751Z,197.40
2022-11-15T17:48:55.754Z,195.38
2022-11-15T17:51:24.062Z,200.65
2022-11-15T17:53:51.544Z,197.18
2022-11-15T17:56:20.893Z,191.23
2022-11-15T17:58:49.331Z,194.18
2022-11-15T18:01:21.837Z,196.52
2022-11-15T18:03:48.945Z,202.27
2022-11-15T18:06:16.634Z,195.48
2022-11-15T18:08:44.709Z,194.95
2022-11-15T18:11:20.804Z,193.57
2022-11-15T18:13:53.043Z,191.02
2022-11-15T18:16:21.931Z,192.10
2022-11-15T18:18:49.809Z,190.48
2022-11-15T18:21:21.869Z,188.82
2022-11-15T18:23:52.725Z,189.05
2022-11-15T18:26:23.037Z,193.93
2022-11-15T18:28:53.886Z,192.10
2022-11-15T18:31:21.412Z,190.73
2022-11-15T18:33:49.296Z,196.18
2022-11-15T18:36:28.043Z,194.07
2022-11-15T18:38:56.524Z,190.90
2022-11-15T18:41:25.448Z,196.00
2022-11-15T18:43:52.691Z,195.15
2022-11-15T18:46:21.147Z,192.48
2022-11-15T18:48:50.558Z,190.70
2022-11-15T18:51:19.929Z,190.63
2022-11-15T18:53:47.171Z,191.35
2022-11-15T18:56:16.383Z,193.63
2022-11-15T18:58:45.133Z,192.98
2022-11-15T19:01:14.938Z,192.68
2022-11-15T19:03:43.858Z,196.50
2022-11-15T19:06:23.161Z,191.80
2022-11-15T19:08:51.390Z,192.13
2022-11-15T19:11:24.176Z,189.57
2022-11-15T19:14:03.191Z,189.07
2022-11-15T19:16:31.469Z,190.52
2022-11-15T19:19:00.116Z,193.25
2022-11-15T19:21:27.751Z,190.93
2022-11-15T19:23:56.397Z,194.52
2022-11-15T19:26:24.207Z,194.38
2022-11-15T19:28:55.567Z,190.90
2022-11-15T19:31:23.719Z,197.05
2022-11-15T19:33:51.245Z,193.80
2022-11-15T19:36:20.642Z,197.00
2022-11-15T19:38:47.607Z,197.02
2022-11-15T19:41:16.894Z,199.35
2022-11-15T19:43:43.895Z,198.52
2022-11-15T19:46:12.327Z,194.98
2022-11-15T19:48:39.235Z,192.60
2022-11-15T19:51:14.525Z,190.82
2022-11-15T19:53:42.315Z,193.63
2022-11-15T19:56:12.658Z,197.38
2022-11-15T19:58:39.889Z,193.95
2022-11-15T20:01:10.766Z,194.07
2022-11-15T20:03:39.106Z,203.40
2022-11-15T20:06:11.834Z,197.10
2022-11-15T20:08:38.390Z,199.73
2022-11-15T20:11:05.662Z,203.82
2022-11-15T20:13:32.214Z,202.73
2022-11-15T20:15:59.551Z,197.35
2022-11-15T20:18:27.672Z,190.70
2022-11-15T20:20:56.666Z,195.88
2022-11-15T20:23:23.611Z,202.95
2022-11-15T20:25:50.176Z,203.85
2022-11-15T20:28:36.940Z,196.90
2022-11-15T20:31:03.610Z,189.23
2022-11-15T20:33:30.231Z,186.90
2022-11-15T20:35:56.937Z,189.10
2022-11-15T20:38:23.775Z,185.35
2022-11-15T20:40:56.015Z,193.15
2022-11-15T20:43:25.533Z,189.68
2022-11-15T20:45:52.081Z,184.75
2022-11-15T20:48:18.640Z,192.00
2022-11-15T20:50:47.034Z,187.45
2022-11-15T20:53:16.674Z,188.85
2022-11-15T20:55:47.752Z,192.40
2022-11-15T20:58:15.592Z,189.45
2022-11-15T21:00:43.194Z,192.75
2022-11-15T21:03:09.802Z,191.20
2022-11-15T21:05:40.842Z,199.65
2022-11-15T21:08:07.953Z,188.07
2022-11-15T21:10:53.705Z,187.82
2022-11-15T21:13:20.427Z,191.95
2022-11-15T21:15:47.260Z,185.95
2022-11-15T21:18:14.214Z,187.98
2022-11-15T21:20:41.399Z,194.02
2022-11-15T21:23:07.992Z,196.50
2022-11-15T21:25:34.814Z,197.70
2022-11-15T21:28:01.361Z,205.00
2022-11-15T21:30:27.876Z,193.75
2022-11-15T21:32:54.614Z,203.25
2022-11-15T21:35:21.227Z,204.98
2022-11-15T21:37:54.962Z,208.02
2022-11-15T21:40:23.168Z,199.88
2022-11-15T21:42:49.674Z,196.60
2022-11-15T21:45:16.570Z,202.55
2022-11-15T21:47:46.048Z,202.25
2022-11-15T21:50:13.062Z,213.40
2022-11-15T21:52:40.693Z,205.63
2022-11-15T21:55:08.441Z,199.30
2022-11-15T21:57:34.936Z,205.15
2022-11-15T22:00:20.264Z,212.25
2022-11-15T22:02:46.768Z,204.07
2022-11-15T22:05:13.422Z,215.38
2022-11-15T22:07:39.952Z,215.02
2022-11-15T22:10:06.882Z,213.32
2022-11-15T22:12:33.374Z,204.98
2022-11-15T22:14:59.901Z,217.95
2022-11-15T22:17:46.463Z,210.23
2022-11-15T22:20:42.466Z,216.63
2022-11-15T22:23:00.150Z,211.93
2022-11-15T22:25:26.686Z,218.43
2022-11-15T22:27:54.144Z,219.88
2022-11-15T22:30:21.437Z,209.55
2022-11-15T22:32:47.966Z,211.75
2022-11-15T22:35:14.960Z,229.38
2022-11-15T22:37:41.698Z,231.45
2022-11-15T22:40:08.986Z,228.93
2022-11-15T22:42:35.476Z,231.20
2022-11-15T22:45:01.985Z,220.13
2022-11-15T22:47:28.495Z,228.27
2022-11-15T22:49:54.991Z,220.52
2022-11-15T22:52:21.477Z,222.18
2022-11-15T22:54:48.052Z,227.57
2022-11-15T22:57:14.560Z,225.27
2022-11-15T22:59:42.427Z,225.57
2022-11-15T23:02:09.091Z,212.38
2022-11-15T23:04:35.869Z,215.07
2022-11-15T23:07:02.441Z,223.68
2022-11-15T23:09:29.283Z,218.13
2022-11-15T23:12:14.239Z,216.85
2022-11-15T23:14:40.828Z,201.80
2022-11-15T23:17:07.399Z,206.85
2022-11-15T23:19:33.937Z,223.18
2022-11-15T23:22:19.110Z,214.40
2022-11-15T23:24:45.621Z,210.45
2022-11-15T23:27:15.230Z,227.05
2022-11-15T23:30:00.136Z,228.95
2022-11-15T23:32:45.016Z,205.35
2022-11-15T23:35:11.519Z,232.38
2022-11-15T23:37:38.021Z,236.45
2022-11-15T23:40:05.327Z,240.00
2022-11-15T23:42:31.938Z,221.77
2022-11-15T23:44:58.430Z,217.45
2022-11-15T23:47:24.986Z,224.57
2022-11-15T23:49:51.493Z,223.60
2022-11-15T23:52:18.094Z,225.52
2022-11-15T23:54:44.639Z,223.45
2022-11-15T23:57:12.507Z,225.15
2022-11-15T23:59:40.373Z,228.85
